PWSweather.com
Personal Weather Stations
Station Observations
IONTARIO88
Lincoln, ON L0R

Lincoln, ON L0R

Lat: 43.1763563, Lon: -79.4719525

Elevation: 297

Station Type: Davis Vantage Pro 2 Plus

http://www.beamsvillewx.ca

High Low Average
Temperature 31.6°F-0.2°C -0.2°F-17.9°C 14.9°F-9.5°C
Dew Point 20.8°F-6.2°C -6.2°F-21.2°C 6.6°F-14.1°C
Winds 15.0 mph 24.1 kmh 1.0 mph 1.6 kmh 7.0 mph SW11.3 kmh SW
Wind Gusts 34.0 mph54.7 kmh 3.0 mph4.8 kmh 16.0 mph25.7 kmh
Humidity 80% 58% 70%
Pressure 30.58 in1035.6 mb 29.99 in1015.6 mb -
Precipitation 0.00 in0.0 mm - -
Hour Temp Dew Point Humidity Winds Wind Gusts Pressure Precip Precip Rate Daily Precip Total
12:00 AM 0.7°F-17.4°C -5.1°F-20.6°C 76% 3.0 mph WSW4.8 kmh WSW 7.0 mph11.3 kmh 30.58 in1035.6 mb 0.00 in0.0 mm 0.00 in0.0 mm 0.00 in0.0 mm
12:15 AM 0.9°F-17.3°C -4.7°F-20.4°C 77% 3.0 mph SW4.8 kmh SW 6.0 mph9.7 kmh 30.58 in1035.6 mb 0.00 in0.0 mm 0.00 in0.0 mm 0.00 in0.0 mm
12:30 AM 0.7°F-17.4°C -4.6°F-20.3°C 78% 2.0 mph SW3.2 kmh SW 6.0 mph9.7 kmh 30.58 in1035.6 mb 0.00 in0.0 mm 0.00 in0.0 mm 0.00 in0.0 mm
12:45 AM 0.9°F-17.3°C -4.1°F-20.1°C 79% 2.0 mph SW3.2 kmh SW 5.0 mph8.0 kmh 30.57 in1035.2 mb 0.00 in0.0 mm 0.00 in0.0 mm 0.00 in0.0 mm
01:00 AM 1.0°F-17.2°C -3.7°F-19.8°C 80% 2.0 mph WSW3.2 kmh WSW 5.0 mph8.0 kmh 30.57 in1035.2 mb 0.00 in0.0 mm 0.00 in0.0 mm 0.00 in0.0 mm
01:15 AM 0.9°F-17.3°C -4.1°F-20.1°C 79% 1.0 mph WSW1.6 kmh WSW 5.0 mph8.0 kmh 30.57 in1035.2 mb 0.00 in0.0 mm 0.00 in0.0 mm 0.00 in0.0 mm
01:30 AM 0.5°F-17.5°C -4.5°F-20.3°C 79% 2.0 mph WSW3.2 kmh WSW 6.0 mph9.7 kmh 30.56 in1034.9 mb 0.00 in0.0 mm 0.00 in0.0 mm 0.00 in0.0 mm
01:45 AM 0.1°F-17.7°C -4.6°F-20.3°C 80% 2.0 mph WSW3.2 kmh WSW 5.0 mph8.0 kmh 30.55 in1034.5 mb 0.00 in0.0 mm 0.00 in0.0 mm 0.00 in0.0 mm
02:00 AM 0.1°F-17.7°C -4.6°F-20.3°C 80% 3.0 mph SW4.8 kmh SW 8.0 mph12.9 kmh 30.55 in1034.5 mb 0.00 in0.0 mm 0.00 in0.0 mm 0.00 in0.0 mm
02:15 AM 0.1°F-17.7°C -4.6°F-20.3°C 80% 2.0 mph SW3.2 kmh SW 6.0 mph9.7 kmh 30.55 in1034.5 mb 0.00 in0.0 mm 0.00 in0.0 mm 0.00 in0.0 mm
02:30 AM 0.0°F-17.8°C -5.0°F-20.6°C 79% 2.0 mph SW3.2 kmh SW 3.0 mph4.8 kmh 30.55 in1034.5 mb 0.00 in0.0 mm 0.00 in0.0 mm 0.00 in0.0 mm
02:45 AM -0.2°F-17.9°C -4.9°F-20.5°C 80% 3.0 mph SW4.8 kmh SW 8.0 mph12.9 kmh 30.55 in1034.5 mb 0.00 in0.0 mm 0.00 in0.0 mm 0.00 in0.0 mm
03:00 AM 0.1°F-17.7°C -4.8°F-20.4°C 79% 5.0 mph SW8.0 kmh SW 11.0 mph17.7 kmh 30.54 in1034.2 mb 0.00 in0.0 mm 0.00 in0.0 mm 0.00 in0.0 mm
03:15 AM 0.3°F-17.6°C -4.9°F-20.5°C 78% 4.0 mph SW6.4 kmh SW 8.0 mph12.9 kmh 30.54 in1034.2 mb 0.00 in0.0 mm 0.00 in0.0 mm 0.00 in0.0 mm
03:30 AM 0.7°F-17.4°C -5.1°F-20.6°C 76% 5.0 mph SW8.0 kmh SW 10.0 mph16.1 kmh 30.54 in1034.2 mb 0.00 in0.0 mm 0.00 in0.0 mm 0.00 in0.0 mm
03:45 AM 0.7°F-17.4°C -5.4°F-20.8°C 75% 5.0 mph SW8.0 kmh SW 10.0 mph16.1 kmh 30.54 in1034.2 mb 0.00 in0.0 mm 0.00 in0.0 mm 0.00 in0.0 mm
04:00 AM 1.0°F-17.2°C -5.3°F-20.7°C 74% 5.0 mph SW8.0 kmh SW 9.0 mph14.5 kmh 30.54 in1034.2 mb 0.00 in0.0 mm 0.00 in0.0 mm 0.00 in0.0 mm
04:15 AM 1.2°F-17.1°C -5.4°F-20.8°C 73% 4.0 mph SW6.4 kmh SW 9.0 mph14.5 kmh 30.54 in1034.2 mb 0.00 in0.0 mm 0.00 in0.0 mm 0.00 in0.0 mm
04:30 AM 1.0°F-17.2°C -5.9°F-21.1°C 72% 4.0 mph SW6.4 kmh SW 8.0 mph12.9 kmh 30.54 in1034.2 mb 0.00 in0.0 mm 0.00 in0.0 mm 0.00 in0.0 mm
04:45 AM 1.0°F-17.2°C -5.9°F-21.1°C 72% 4.0 mph SW6.4 kmh SW 8.0 mph12.9 kmh 30.53 in1033.9 mb 0.00 in0.0 mm 0.00 in0.0 mm 0.00 in0.0 mm
05:00 AM 1.2°F-17.1°C -6.0°F-21.1°C 71% 3.0 mph SW4.8 kmh SW 6.0 mph9.7 kmh 30.53 in1033.9 mb 0.00 in0.0 mm 0.00 in0.0 mm 0.00 in0.0 mm
05:15 AM 1.2°F-17.1°C -6.0°F-21.1°C 71% 2.0 mph SW3.2 kmh SW 5.0 mph8.0 kmh 30.53 in1033.9 mb 0.00 in0.0 mm 0.00 in0.0 mm 0.00 in0.0 mm
05:30 AM 1.0°F-17.2°C -6.2°F-21.2°C 71% 1.0 mph SW1.6 kmh SW 4.0 mph6.4 kmh 30.52 in1033.5 mb 0.00 in0.0 mm 0.00 in0.0 mm 0.00 in0.0 mm
05:45 AM 1.2°F-17.1°C -5.4°F-20.8°C 73% 2.0 mph SW3.2 kmh SW 5.0 mph8.0 kmh 30.52 in1033.5 mb 0.00 in0.0 mm 0.00 in0.0 mm 0.00 in0.0 mm
06:00 AM 1.9°F-16.7°C -4.2°F-20.1°C 75% 2.0 mph SW3.2 kmh SW 6.0 mph9.7 kmh 30.52 in1033.5 mb 0.00 in0.0 mm 0.00 in0.0 mm 0.00 in0.0 mm
06:15 AM 2.7°F-16.3°C -3.2°F-19.6°C 76% 2.0 mph SW3.2 kmh SW 6.0 mph9.7 kmh 30.52 in1033.5 mb 0.00 in0.0 mm 0.00 in0.0 mm 0.00 in0.0 mm
06:30 AM 2.7°F-16.3°C -3.2°F-19.6°C 76% 1.0 mph SW1.6 kmh SW 4.0 mph6.4 kmh 30.52 in1033.5 mb 0.00 in0.0 mm 0.00 in0.0 mm 0.00 in0.0 mm
06:45 AM 2.8°F-16.2°C -3.0°F-19.4°C 76% 1.0 mph SW1.6 kmh SW 4.0 mph6.4 kmh 30.52 in1033.5 mb 0.00 in0.0 mm 0.00 in0.0 mm 0.00 in0.0 mm
07:00 AM 2.8°F-16.2°C -3.0°F-19.4°C 76% 2.0 mph SW3.2 kmh SW 5.0 mph8.0 kmh 30.52 in1033.5 mb 0.00 in0.0 mm 0.00 in0.0 mm 0.00 in0.0 mm
07:15 AM 2.7°F-16.3°C -2.9°F-19.4°C 77% 3.0 mph SW4.8 kmh SW 6.0 mph9.7 kmh 30.51 in1033.2 mb 0.00 in0.0 mm 0.00 in0.0 mm 0.00 in0.0 mm
07:30 AM 2.7°F-16.3°C -2.9°F-19.4°C 77% 3.0 mph SW4.8 kmh SW 7.0 mph11.3 kmh 30.51 in1033.2 mb 0.00 in0.0 mm 0.00 in0.0 mm 0.00 in0.0 mm
07:45 AM 2.7°F-16.3°C -2.9°F-19.4°C 77% 4.0 mph SW6.4 kmh SW 7.0 mph11.3 kmh 30.51 in1033.2 mb 0.00 in0.0 mm 0.00 in0.0 mm 0.00 in0.0 mm
08:00 AM 3.4°F-15.9°C -1.9°F-18.8°C 78% 2.0 mph SW3.2 kmh SW 5.0 mph8.0 kmh 30.49 in1032.5 mb 0.00 in0.0 mm 0.00 in0.0 mm 0.00 in0.0 mm
08:15 AM 4.5°F-15.3°C -0.6°F-18.1°C 79% 3.0 mph SW4.8 kmh SW 7.0 mph11.3 kmh 30.49 in1032.5 mb 0.00 in0.0 mm 0.00 in0.0 mm 0.00 in0.0 mm
08:30 AM 5.7°F-14.6°C 0.1°F-17.7°C 77% 4.0 mph SW6.4 kmh SW 7.0 mph11.3 kmh 30.49 in1032.5 mb 0.00 in0.0 mm 0.00 in0.0 mm 0.00 in0.0 mm
08:45 AM 6.3°F-14.3°C 0.6°F-17.4°C 77% 2.0 mph SW3.2 kmh SW 5.0 mph8.0 kmh 30.48 in1032.2 mb 0.00 in0.0 mm 0.00 in0.0 mm 0.00 in0.0 mm
09:00 AM 7.2°F-13.8°C 1.2°F-17.1°C 76% 1.0 mph SW1.6 kmh SW 4.0 mph6.4 kmh 30.47 in1031.8 mb 0.00 in0.0 mm 0.00 in0.0 mm 0.00 in0.0 mm
09:15 AM 8.8°F-12.9°C 2.8°F-16.2°C 76% 2.0 mph SW3.2 kmh SW 8.0 mph12.9 kmh 30.46 in1031.5 mb 0.00 in0.0 mm 0.00 in0.0 mm 0.00 in0.0 mm
09:30 AM 10.9°F-11.7°C 4.3°F-15.4°C 74% 3.0 mph SW4.8 kmh SW 12.0 mph19.3 kmh 30.46 in1031.5 mb 0.00 in0.0 mm 0.00 in0.0 mm 0.00 in0.0 mm
09:45 AM 12.0°F-11.1°C 5.3°F-14.8°C 74% 3.0 mph SW4.8 kmh SW 10.0 mph16.1 kmh 30.46 in1031.5 mb 0.00 in0.0 mm 0.00 in0.0 mm 0.00 in0.0 mm
10:00 AM 13.6°F-10.2°C 6.3°F-14.3°C 72% 4.0 mph SW6.4 kmh SW 9.0 mph14.5 kmh 30.44 in1030.8 mb 0.00 in0.0 mm 0.00 in0.0 mm 0.00 in0.0 mm
10:15 AM 14.9°F-9.5°C 7.2°F-13.8°C 71% 6.0 mph SW9.7 kmh SW 16.0 mph25.7 kmh 30.43 in1030.5 mb 0.00 in0.0 mm 0.00 in0.0 mm 0.00 in0.0 mm
10:30 AM 15.4°F-9.2°C 7.7°F-13.5°C 71% 6.0 mph SW9.7 kmh SW 20.0 mph32.2 kmh 30.43 in1030.5 mb 0.00 in0.0 mm 0.00 in0.0 mm 0.00 in0.0 mm
10:45 AM 15.8°F-9.0°C 7.7°F-13.5°C 70% 7.0 mph SW11.3 kmh SW 16.0 mph25.7 kmh 30.41 in1029.8 mb 0.00 in0.0 mm 0.00 in0.0 mm 0.00 in0.0 mm
11:00 AM 16.7°F-8.5°C 8.6°F-13.0°C 70% 7.0 mph SW11.3 kmh SW 18.0 mph29.0 kmh 30.40 in1029.5 mb 0.00 in0.0 mm 0.00 in0.0 mm 0.00 in0.0 mm
11:15 AM 17.4°F-8.1°C 8.0°F-13.3°C 66% 9.0 mph SW14.5 kmh SW 20.0 mph32.2 kmh 30.40 in1029.5 mb 0.00 in0.0 mm 0.00 in0.0 mm 0.00 in0.0 mm
11:30 AM 18.0°F-7.8°C 8.5°F-13.1°C 66% 10.0 mph SW16.1 kmh SW 19.0 mph30.6 kmh 30.38 in1028.8 mb 0.00 in0.0 mm 0.00 in0.0 mm 0.00 in0.0 mm
11:45 AM 17.2°F-8.2°C 7.8°F-13.4°C 66% 12.0 mph SW19.3 kmh SW 27.0 mph43.5 kmh 30.36 in1028.1 mb 0.00 in0.0 mm 0.00 in0.0 mm 0.00 in0.0 mm
12:00 PM 17.1°F-8.3°C 8.3°F-13.2°C 68% 9.0 mph SW14.5 kmh SW 22.0 mph35.4 kmh 30.35 in1027.8 mb 0.00 in0.0 mm 0.00 in0.0 mm 0.00 in0.0 mm
12:15 PM 17.2°F-8.2°C 8.2°F-13.2°C 67% 10.0 mph SW16.1 kmh SW 21.0 mph33.8 kmh 30.33 in1027.1 mb 0.00 in0.0 mm 0.00 in0.0 mm 0.00 in0.0 mm
12:30 PM 17.2°F-8.2°C 8.5°F-13.1°C 68% 9.0 mph SW14.5 kmh SW 22.0 mph35.4 kmh 30.32 in1026.8 mb 0.00 in0.0 mm 0.00 in0.0 mm 0.00 in0.0 mm
12:45 PM 17.8°F-7.9°C 8.7°F-12.9°C 67% 9.0 mph SW14.5 kmh SW 20.0 mph32.2 kmh 30.32 in1026.8 mb 0.00 in0.0 mm 0.00 in0.0 mm 0.00 in0.0 mm
01:00 PM 18.1°F-7.7°C 8.7°F-12.9°C 66% 10.0 mph SW16.1 kmh SW 21.0 mph33.8 kmh 30.30 in1026.1 mb 0.00 in0.0 mm 0.00 in0.0 mm 0.00 in0.0 mm
01:15 PM 18.7°F-7.4°C 9.2°F-12.7°C 66% 9.0 mph SW14.5 kmh SW 20.0 mph32.2 kmh 30.28 in1025.4 mb 0.00 in0.0 mm 0.00 in0.0 mm 0.00 in0.0 mm
01:30 PM 18.9°F-7.3°C 9.7°F-12.4°C 67% 9.0 mph SW14.5 kmh SW 19.0 mph30.6 kmh 30.27 in1025.1 mb 0.00 in0.0 mm 0.00 in0.0 mm 0.00 in0.0 mm
01:45 PM 19.0°F-7.2°C 10.5°F-11.9°C 69% 6.0 mph SW9.7 kmh SW 18.0 mph29.0 kmh 30.25 in1024.4 mb 0.00 in0.0 mm 0.00 in0.0 mm 0.00 in0.0 mm
02:00 PM 19.2°F-7.1°C 10.4°F-12.0°C 68% 8.0 mph SSW12.9 kmh SSW 18.0 mph29.0 kmh 30.24 in1024.0 mb 0.00 in0.0 mm 0.00 in0.0 mm 0.00 in0.0 mm
02:15 PM 19.8°F-6.8°C 10.9°F-11.7°C 68% 7.0 mph SSW11.3 kmh SSW 19.0 mph30.6 kmh 30.23 in1023.7 mb 0.00 in0.0 mm 0.00 in0.0 mm 0.00 in0.0 mm
02:30 PM 19.9°F-6.7°C 11.4°F-11.4°C 69% 6.0 mph SSW9.7 kmh SSW 14.0 mph22.5 kmh 30.22 in1023.4 mb 0.00 in0.0 mm 0.00 in0.0 mm 0.00 in0.0 mm
02:45 PM 20.3°F-6.5°C 11.7°F-11.3°C 69% 7.0 mph SSW11.3 kmh SSW 17.0 mph27.4 kmh 30.20 in1022.7 mb 0.00 in0.0 mm 0.00 in0.0 mm 0.00 in0.0 mm
03:00 PM 21.0°F-6.1°C 11.8°F-11.2°C 67% 7.0 mph SSW11.3 kmh SSW 17.0 mph27.4 kmh 30.18 in1022.0 mb 0.00 in0.0 mm 0.00 in0.0 mm 0.00 in0.0 mm
03:15 PM 21.6°F-5.8°C 11.6°F-11.3°C 65% 7.0 mph SW11.3 kmh SW 18.0 mph29.0 kmh 30.18 in1022.0 mb 0.00 in0.0 mm 0.00 in0.0 mm 0.00 in0.0 mm
03:30 PM 22.1°F-5.5°C 11.8°F-11.2°C 64% 7.0 mph SW11.3 kmh SW 20.0 mph32.2 kmh 30.18 in1022.0 mb 0.00 in0.0 mm 0.00 in0.0 mm 0.00 in0.0 mm
03:45 PM 22.6°F-5.2°C 11.9°F-11.2°C 63% 10.0 mph SW16.1 kmh SW 21.0 mph33.8 kmh 30.17 in1021.7 mb 0.00 in0.0 mm 0.00 in0.0 mm 0.00 in0.0 mm
04:00 PM 23.0°F-5.0°C 11.5°F-11.4°C 61% 9.0 mph SW14.5 kmh SW 21.0 mph33.8 kmh 30.16 in1021.3 mb 0.00 in0.0 mm 0.00 in0.0 mm 0.00 in0.0 mm
04:15 PM 23.4°F-4.8°C 11.1°F-11.6°C 59% 8.0 mph SW12.9 kmh SW 21.0 mph33.8 kmh 30.15 in1021.0 mb 0.00 in0.0 mm 0.00 in0.0 mm 0.00 in0.0 mm
04:30 PM 23.4°F-4.8°C 10.7°F-11.8°C 58% 7.0 mph SW11.3 kmh SW 19.0 mph30.6 kmh 30.13 in1020.3 mb 0.00 in0.0 mm 0.00 in0.0 mm 0.00 in0.0 mm
04:45 PM 23.7°F-4.6°C 11.1°F-11.6°C 58% 11.0 mph SW17.7 kmh SW 23.0 mph37.0 kmh 30.12 in1020.0 mb 0.00 in0.0 mm 0.00 in0.0 mm 0.00 in0.0 mm
05:00 PM 23.9°F-4.5°C 12.0°F-11.1°C 60% 9.0 mph SW14.5 kmh SW 23.0 mph37.0 kmh 30.12 in1020.0 mb 0.00 in0.0 mm 0.00 in0.0 mm 0.00 in0.0 mm
05:15 PM 24.3°F-4.3°C 12.7°F-10.7°C 61% 9.0 mph SW14.5 kmh SW 22.0 mph35.4 kmh 30.11 in1019.6 mb 0.00 in0.0 mm 0.00 in0.0 mm 0.00 in0.0 mm
05:30 PM 24.8°F-4.0°C 14.0°F-10.0°C 63% 12.0 mph SW19.3 kmh SW 23.0 mph37.0 kmh 30.10 in1019.3 mb 0.00 in0.0 mm 0.00 in0.0 mm 0.00 in0.0 mm
05:45 PM 25.2°F-3.8°C 15.4°F-9.2°C 66% 11.0 mph SW17.7 kmh SW 22.0 mph35.4 kmh 30.09 in1019.0 mb 0.00 in0.0 mm 0.00 in0.0 mm 0.00 in0.0 mm
06:00 PM 25.5°F-3.6°C 16.1°F-8.8°C 67% 11.0 mph SW17.7 kmh SW 22.0 mph35.4 kmh 30.09 in1019.0 mb 0.00 in0.0 mm 0.00 in0.0 mm 0.00 in0.0 mm
06:15 PM 25.9°F-3.4°C 16.1°F-8.8°C 66% 10.0 mph SW16.1 kmh SW 22.0 mph35.4 kmh 30.11 in1019.6 mb 0.00 in0.0 mm 0.00 in0.0 mm 0.00 in0.0 mm
06:30 PM 26.1°F-3.3°C 16.9°F-8.4°C 68% 8.0 mph SW12.9 kmh SW 22.0 mph35.4 kmh 30.10 in1019.3 mb 0.00 in0.0 mm 0.00 in0.0 mm 0.00 in0.0 mm
06:45 PM 26.4°F-3.1°C 18.0°F-7.8°C 70% 9.0 mph SW14.5 kmh SW 23.0 mph37.0 kmh 30.09 in1019.0 mb 0.00 in0.0 mm 0.00 in0.0 mm 0.00 in0.0 mm
07:00 PM 27.0°F-2.8°C 18.8°F-7.3°C 71% 9.0 mph SW14.5 kmh SW 22.0 mph35.4 kmh 30.08 in1018.6 mb 0.00 in0.0 mm 0.00 in0.0 mm 0.00 in0.0 mm
07:15 PM 27.5°F-2.5°C 19.3°F-7.1°C 71% 9.0 mph SW14.5 kmh SW 24.0 mph38.6 kmh 30.06 in1017.9 mb 0.00 in0.0 mm 0.00 in0.0 mm 0.00 in0.0 mm
07:30 PM 28.0°F-2.2°C 19.5°F-6.9°C 70% 11.0 mph SW17.7 kmh SW 24.0 mph38.6 kmh 30.06 in1017.9 mb 0.00 in0.0 mm 0.00 in0.0 mm 0.00 in0.0 mm
07:45 PM 28.6°F-1.9°C 18.7°F-7.4°C 66% 13.0 mph SW20.9 kmh SW 26.0 mph41.8 kmh 30.05 in1017.6 mb 0.00 in0.0 mm 0.00 in0.0 mm 0.00 in0.0 mm
08:00 PM 28.8°F-1.8°C 19.2°F-7.1°C 67% 13.0 mph SW20.9 kmh SW 27.0 mph43.5 kmh 30.04 in1017.3 mb 0.00 in0.0 mm 0.00 in0.0 mm 0.00 in0.0 mm
08:15 PM 28.9°F-1.7°C 19.0°F-7.2°C 66% 10.0 mph SW16.1 kmh SW 20.0 mph32.2 kmh 30.04 in1017.3 mb 0.00 in0.0 mm 0.00 in0.0 mm 0.00 in0.0 mm
08:30 PM 29.5°F-1.4°C 18.4°F-7.6°C 63% 11.0 mph SW17.7 kmh SW 26.0 mph41.8 kmh 30.03 in1016.9 mb 0.00 in0.0 mm 0.00 in0.0 mm 0.00 in0.0 mm
08:45 PM 29.8°F-1.2°C 18.4°F-7.6°C 62% 13.0 mph SW20.9 kmh SW 34.0 mph54.7 kmh 30.03 in1016.9 mb 0.00 in0.0 mm 0.00 in0.0 mm 0.00 in0.0 mm
09:00 PM 30.0°F-1.1°C 18.6°F-7.4°C 62% 12.0 mph SW19.3 kmh SW 25.0 mph40.2 kmh 30.02 in1016.6 mb 0.00 in0.0 mm 0.00 in0.0 mm 0.00 in0.0 mm
09:15 PM 30.4°F-0.9°C 18.5°F-7.5°C 61% 11.0 mph SW17.7 kmh SW 27.0 mph43.5 kmh 30.01 in1016.3 mb 0.00 in0.0 mm 0.00 in0.0 mm 0.00 in0.0 mm
09:30 PM 30.6°F-0.8°C 18.3°F-7.6°C 60% 13.0 mph SW20.9 kmh SW 28.0 mph45.1 kmh 30.01 in1016.3 mb 0.00 in0.0 mm 0.00 in0.0 mm 0.00 in0.0 mm
09:45 PM 30.4°F-0.9°C 19.3°F-7.1°C 63% 14.0 mph SW22.5 kmh SW 33.0 mph53.1 kmh 30.01 in1016.3 mb 0.00 in0.0 mm 0.00 in0.0 mm 0.00 in0.0 mm
10:00 PM 30.2°F-1.0°C 19.1°F-7.2°C 63% 13.0 mph SW20.9 kmh SW 25.0 mph40.2 kmh 30.01 in1016.3 mb 0.00 in0.0 mm 0.00 in0.0 mm 0.00 in0.0 mm
10:15 PM 30.6°F-0.8°C 19.1°F-7.2°C 62% 15.0 mph SW24.1 kmh SW 29.0 mph46.7 kmh 30.01 in1016.3 mb 0.00 in0.0 mm 0.00 in0.0 mm 0.00 in0.0 mm
10:30 PM 30.9°F-0.6°C 19.0°F-7.2°C 61% 13.0 mph SW20.9 kmh SW 30.0 mph48.3 kmh 30.00 in1015.9 mb 0.00 in0.0 mm 0.00 in0.0 mm 0.00 in0.0 mm
10:45 PM 31.1°F-0.5°C 19.2°F-7.1°C 61% 14.0 mph SW22.5 kmh SW 27.0 mph43.5 kmh 30.01 in1016.3 mb 0.00 in0.0 mm 0.00 in0.0 mm 0.00 in0.0 mm
11:00 PM 31.3°F-0.4°C 19.4°F-7.0°C 61% 12.0 mph SW19.3 kmh SW 29.0 mph46.7 kmh 30.00 in1015.9 mb 0.00 in0.0 mm 0.00 in0.0 mm 0.00 in0.0 mm
11:15 PM 31.5°F-0.3°C 19.5°F-6.9°C 61% 15.0 mph SW24.1 kmh SW 27.0 mph43.5 kmh 29.99 in1015.6 mb 0.00 in0.0 mm 0.00 in0.0 mm 0.00 in0.0 mm
11:30 PM 31.5°F-0.3°C 19.9°F-6.7°C 62% 12.0 mph SW19.3 kmh SW 28.0 mph45.1 kmh 29.99 in1015.6 mb 0.00 in0.0 mm 0.00 in0.0 mm 0.00 in0.0 mm
11:45 PM 31.6°F-0.2°C 20.8°F-6.2°C 64% 13.0 mph SW20.9 kmh SW 25.0 mph40.2 kmh 30.00 in1015.9 mb 0.00 in0.0 mm 0.00 in0.0 mm 0.00 in0.0 mm